createdAt,value
2023-10-09T00:00:37.162Z,16.77
2023-10-09T00:03:07.947Z,17.50
2023-10-09T00:05:47.347Z,17.80
2023-10-09T00:08:23.303Z,17.15
2023-10-09T00:10:54.756Z,17.85
2023-10-09T00:13:29.338Z,17.80
2023-10-09T00:16:01.640Z,17.38
2023-10-09T00:18:35.138Z,18.35
2023-10-09T00:21:12.937Z,19.20
2023-10-09T00:23:42.869Z,20.17
2023-10-09T00:26:12.548Z,21.20
2023-10-09T00:28:52.617Z,20.42
2023-10-09T00:31:31.326Z,19.70
2023-10-09T00:34:09.070Z,19.13
2023-10-09T00:36:52.031Z,18.30
2023-10-09T00:39:42.081Z,20.00
2023-10-09T00:42:13.650Z,19.73
2023-10-09T00:44:43.482Z,20.05
2023-10-09T00:47:23.502Z,20.85
2023-10-09T00:49:55.181Z,19.92
2023-10-09T00:52:38.449Z,20.92
2023-10-09T00:55:15.405Z,20.88
2023-10-09T00:57:51.833Z,20.05
2023-10-09T01:00:33.801Z,22.45
2023-10-09T01:03:21.192Z,20.92
2023-10-09T01:05:59.141Z,20.30
2023-10-09T01:08:32.193Z,20.85
2023-10-09T01:11:10.592Z,21.58
2023-10-09T01:13:53.839Z,21.77
2023-10-09T01:16:23.803Z,21.42
2023-10-09T01:18:52.740Z,20.42
2023-10-09T01:21:25.661Z,20.38
2023-10-09T01:24:06.144Z,20.77
2023-10-09T01:26:40.704Z,21.17
2023-10-09T01:29:11.858Z,19.70
2023-10-09T01:31:45.031Z,20.30
2023-10-09T01:34:15.055Z,20.42
2023-10-09T01:36:43.819Z,21.38
2023-10-09T01:39:25.037Z,19.92
2023-10-09T01:41:59.617Z,20.13
2023-10-09T01:44:31.376Z,20.48
2023-10-09T01:46:59.531Z,19.95
2023-10-09T01:49:33.256Z,19.13
2023-10-09T01:52:07.969Z,18.55
2023-10-09T01:54:39.037Z,18.60
2023-10-09T01:57:13.207Z,19.63
2023-10-09T01:59:44.999Z,18.90
2023-10-09T02:02:27.086Z,19.67
2023-10-09T02:05:08.038Z,16.95
2023-10-09T02:07:42.529Z,17.27
2023-10-09T02:10:23.058Z,17.00
2023-10-09T02:12:55.287Z,17.90
2023-10-09T02:15:42.335Z,16.77
2023-10-09T02:18:20.065Z,16.20
2023-10-09T02:20:56.815Z,16.33
2023-10-09T02:23:31.472Z,16.58
2023-10-09T02:26:02.964Z,17.15
2023-10-09T02:28:34.110Z,16.77
2023-10-09T02:31:05.105Z,16.35
2023-10-09T02:33:34.285Z,15.18
2023-10-09T02:36:06.488Z,14.90
2023-10-09T02:38:37.499Z,16.17
2023-10-09T02:41:22.011Z,14.77
2023-10-09T02:43:51.840Z,15.45
2023-10-09T02:46:21.705Z,15.23
2023-10-09T02:48:52.024Z,15.75
2023-10-09T02:51:33.443Z,14.57
2023-10-09T02:54:09.189Z,15.13
2023-10-09T02:56:44.679Z,15.43
2023-10-09T02:59:12.618Z,15.75
2023-10-09T03:01:41.846Z,13.05
2023-10-09T03:04:12.323Z,14.90
2023-10-09T03:06:51.114Z,13.57
2023-10-09T03:09:19.580Z,14.77
2023-10-09T03:11:54.640Z,16.35
2023-10-09T03:14:22.856Z,16.65
2023-10-09T03:16:50.694Z,14.50
2023-10-09T03:19:18.739Z,15.23
2023-10-09T03:21:47.874Z,15.32
2023-10-09T03:24:17.189Z,14.77
2023-10-09T03:26:46.634Z,15.65
2023-10-09T03:29:16.107Z,15.77
2023-10-09T03:31:44.493Z,15.27
2023-10-09T03:34:13.257Z,15.02
2023-10-09T03:36:41.220Z,16.60
2023-10-09T03:39:25.254Z,17.20
2023-10-09T03:41:55.462Z,17.33
2023-10-09T03:44:24.903Z,16.05
2023-10-09T03:46:53.513Z,15.50
2023-10-09T03:49:24.981Z,16.27
2023-10-09T03:51:53.051Z,16.80
2023-10-09T03:54:23.348Z,15.27
2023-10-09T03:56:51.655Z,15.75
2023-10-09T03:59:21.053Z,15.88
2023-10-09T04:01:54.450Z,17.23
2023-10-09T04:04:24.617Z,17.60
2023-10-09T04:06:52.928Z,17.10
2023-10-09T04:09:37.327Z,16.30
2023-10-09T04:12:21.846Z,17.73
2023-10-09T04:17:35.215Z,17.10
2023-10-09T04:20:27.052Z,16.85
2023-10-09T04:23:01.356Z,15.75
2023-10-09T04:25:30.724Z,16.45
2023-10-09T04:28:10.427Z,16.45
2023-10-09T04:30:41.905Z,15.32
2023-10-09T04:33:29.205Z,15.63
2023-10-09T04:36:14.672Z,15.18
2023-10-09T04:38:54.196Z,16.40
2023-10-09T04:41:28.979Z,14.45
2023-10-09T04:44:16.954Z,15.18
2023-10-09T04:46:45.858Z,15.02
2023-10-09T04:49:28.578Z,14.90
2023-10-09T04:52:07.040Z,14.63
2023-10-09T04:55:01.361Z,13.75
2023-10-09T04:57:30.741Z,14.98
2023-10-09T04:59:59.965Z,14.95
2023-10-09T05:02:37.582Z,15.13
2023-10-09T05:05:37.719Z,13.98
2023-10-09T05:08:20.366Z,14.98
2023-10-09T05:11:15.264Z,15.15
2023-10-09T05:16:16.957Z,14.77
2023-10-09T05:18:46.629Z,12.63
2023-10-09T05:21:29.891Z,13.48
2023-10-09T05:27:13.622Z,12.65
2023-10-09T05:29:50.458Z,12.88
2023-10-09T05:32:29.360Z,12.38
2023-10-09T05:35:16.985Z,12.57
2023-10-09T05:37:47.061Z,12.57
2023-10-09T05:40:24.500Z,12.38
2023-10-09T05:43:00.803Z,11.85
2023-10-09T05:45:51.875Z,11.25
2023-10-09T05:48:37.524Z,11.60
2023-10-09T05:51:31.365Z,11.93
2023-10-09T05:57:31.648Z,11.07
2023-10-09T06:00:17.565Z,10.90
2023-10-09T06:03:03.315Z,11.05
2023-10-09T06:05:51.785Z,10.80
2023-10-09T06:08:25.999Z,11.35
2023-10-09T06:13:47.088Z,11.75
2023-10-09T06:16:42.436Z,12.07
2023-10-09T06:19:14.009Z,10.75
2023-10-09T06:22:01.376Z,10.50
2023-10-09T06:24:43.011Z,10.15
2023-10-09T06:27:14.574Z,10.40
2023-10-09T06:30:14.486Z,10.00
2023-10-09T06:32:52.247Z,11.07
2023-10-09T06:35:23.366Z,9.75
2023-10-09T06:38:08.887Z,10.45
2023-10-09T06:40:55.551Z,10.27
2023-10-09T06:43:30.366Z,9.80
2023-10-09T06:46:20.704Z,9.70
2023-10-09T06:48:57.196Z,9.98
2023-10-09T06:51:43.207Z,10.00
2023-10-09T06:54:11.064Z,9.90
2023-10-09T06:57:05.272Z,9.82
2023-10-09T07:00:04.082Z,11.40
2023-10-09T07:02:47.752Z,10.13
2023-10-09T07:05:18.768Z,10.57
2023-10-09T07:07:56.576Z,10.52
2023-10-09T07:10:40.798Z,10.32
2023-10-09T07:13:08.763Z,9.95
2023-10-09T07:15:54.783Z,9.05
2023-10-09T07:18:42.248Z,9.52
2023-10-09T07:21:13.301Z,9.85
2023-10-09T07:23:50.664Z,9.35
2023-10-09T07:26:24.690Z,9.38
2023-10-09T07:31:41.088Z,9.38
2023-10-09T07:34:24.833Z,9.73
2023-10-09T07:36:57.975Z,10.98
2023-10-09T07:39:35.449Z,10.18
2023-10-09T07:42:27.778Z,9.57
2023-10-09T07:44:59.160Z,8.80
2023-10-09T07:47:47.376Z,8.90
2023-10-09T07:50:22.456Z,9.63
2023-10-09T07:52:51.248Z,9.40
2023-10-09T07:55:30.792Z,9.07
2023-10-09T07:57:58.746Z,9.48
2023-10-09T08:00:50.413Z,8.93
2023-10-09T08:03:26.060Z,9.55
2023-10-09T08:06:08.078Z,8.95
2023-10-09T08:09:02.169Z,8.32
2023-10-09T08:12:00.822Z,8.60
2023-10-09T08:14:47.038Z,9.88
2023-10-09T08:17:16.777Z,11.75
2023-10-09T08:19:55.831Z,10.57
2023-10-09T08:22:44.204Z,11.05
2023-10-09T08:25:29.334Z,10.38
2023-10-09T08:28:16.066Z,10.88
2023-10-09T08:30:50.953Z,11.18
2023-10-09T08:36:16.437Z,11.63
2023-10-09T08:38:46.162Z,11.15
2023-10-09T08:41:24.303Z,11.20
2023-10-09T08:43:53.696Z,11.05
2023-10-09T08:46:22.949Z,10.45
2023-10-09T08:48:51.549Z,10.52
2023-10-09T08:51:21.110Z,12.35
2023-10-09T08:53:50.646Z,11.68
2023-10-09T08:56:23.466Z,9.73
2023-10-09T08:58:53.415Z,10.13
2023-10-09T09:01:22.936Z,9.85
2023-10-09T09:03:52.450Z,9.32
2023-10-09T09:06:21.513Z,9.65
2023-10-09T09:08:56.049Z,9.05
2023-10-09T09:11:25.678Z,8.65
2023-10-09T09:14:05.817Z,9.45
2023-10-09T09:16:36.632Z,9.88
2023-10-09T09:19:18.756Z,8.85
2023-10-09T09:22:12.449Z,8.10
2023-10-09T09:24:47.460Z,8.90
2023-10-09T09:27:19.665Z,8.00
2023-10-09T09:29:54.566Z,8.23
2023-10-09T09:32:37.731Z,8.18
2023-10-09T09:35:07.356Z,8.35
2023-10-09T09:37:51.760Z,8.27
2023-10-09T09:40:34.304Z,7.65
2023-10-09T09:43:06.683Z,7.80
2023-10-09T09:45:35.326Z,6.95
2023-10-09T09:48:07.169Z,7.25
2023-10-09T09:50:38.278Z,7.57
2023-10-09T09:53:09.687Z,7.50
2023-10-09T09:55:43.358Z,8.50
2023-10-09T09:58:19.951Z,8.05
2023-10-09T10:00:54.099Z,7.68
2023-10-09T10:05:54.592Z,7.72
2023-10-09T10:08:32.263Z,7.18
2023-10-09T10:11:06.942Z,7.80
2023-10-09T10:14:00.128Z,7.20
2023-10-09T10:16:36.118Z,7.32
2023-10-09T10:19:23.422Z,6.63
2023-10-09T10:21:51.119Z,6.75
2023-10-09T10:25:03.838Z,6.55
2023-10-09T10:27:34.446Z,7.00
2023-10-09T10:30:35.405Z,7.07
2023-10-09T10:33:11.418Z,7.20
2023-10-09T10:35:47.335Z,7.45
2023-10-09T10:38:24.840Z,6.72
2023-10-09T10:40:58.571Z,6.80
2023-10-09T10:43:35.375Z,6.97
2023-10-09T10:46:06.028Z,6.88
2023-10-09T10:48:39.580Z,6.32
2023-10-09T10:51:07.895Z,6.07
2023-10-09T10:53:48.718Z,7.25
2023-10-09T10:56:36.256Z,7.10
2023-10-09T10:59:14.543Z,6.32
2023-10-09T11:02:15.125Z,6.68
2023-10-09T11:04:45.101Z,7.38
2023-10-09T11:07:16.570Z,6.53
2023-10-09T11:10:11.556Z,6.85
2023-10-09T11:13:07.147Z,6.60
2023-10-09T11:15:45.564Z,7.18
2023-10-09T11:18:20.952Z,6.60
2023-10-09T11:20:57.913Z,6.50
2023-10-09T11:23:38.202Z,6.40
2023-10-09T11:26:22.567Z,6.13
2023-10-09T11:31:47.105Z,6.97
2023-10-09T11:34:30.332Z,6.80
2023-10-09T11:37:01.304Z,5.60
2023-10-09T11:39:35.851Z,5.43
2023-10-09T11:42:05.493Z,6.10
2023-10-09T11:44:42.137Z,6.38
2023-10-09T11:47:25.123Z,5.93
2023-10-09T11:50:13.408Z,5.80
2023-10-09T11:52:58.048Z,6.50
2023-10-09T11:55:26.647Z,5.90
2023-10-09T11:57:54.567Z,5.22
2023-10-09T12:00:30.540Z,5.72
2023-10-09T12:03:06.336Z,5.43
2023-10-09T12:05:35.004Z,5.05
2023-10-09T12:08:09.660Z,6.13
2023-10-09T12:10:39.725Z,5.32
2023-10-09T12:13:08.813Z,6.25
2023-10-09T12:15:39.928Z,4.72
2023-10-09T12:18:16.452Z,4.60
2023-10-09T12:20:51.113Z,5.78
2023-10-09T12:23:20.121Z,5.13
2023-10-09T12:25:50.912Z,5.57
2023-10-09T12:28:21.617Z,5.90
2023-10-09T12:30:51.685Z,4.93
2023-10-09T12:33:29.160Z,5.70
2023-10-09T12:36:01.187Z,6.28
2023-10-09T12:38:33.977Z,4.88
2023-10-09T12:41:09.449Z,5.15
2023-10-09T12:43:39.723Z,5.43
2023-10-09T12:46:08.946Z,5.38
2023-10-09T12:48:38.846Z,4.95
2023-10-09T12:51:08.534Z,5.75
2023-10-09T12:53:42.446Z,5.32
2023-10-09T12:58:43.241Z,6.07
2023-10-09T13:01:12.844Z,5.78
2023-10-09T13:03:42.257Z,6.63
2023-10-09T13:06:11.806Z,5.38
2023-10-09T13:08:42.143Z,5.80
2023-10-09T13:11:13.041Z,5.22
2023-10-09T13:13:42.811Z,4.97
2023-10-09T13:16:14.527Z,5.65
2023-10-09T13:18:51.173Z,6.05
2023-10-09T13:21:20.442Z,5.50
2023-10-09T13:23:52.433Z,5.40
2023-10-09T13:26:32.325Z,5.65
2023-10-09T13:29:02.866Z,5.30
2023-10-09T13:31:33.584Z,5.10
2023-10-09T13:34:07.556Z,5.80
2023-10-09T13:36:50.983Z,5.40
2023-10-09T13:39:24.275Z,5.10
2023-10-09T13:41:59.061Z,5.20
2023-10-09T13:44:29.110Z,5.35
2023-10-09T13:46:57.535Z,5.00
2023-10-09T13:49:31.586Z,4.82
2023-10-09T13:54:40.640Z,4.93
2023-10-09T13:57:11.863Z,6.00
2023-10-09T13:59:44.417Z,5.30
2023-10-09T14:02:18.802Z,5.18
2023-10-09T14:04:49.642Z,5.50
2023-10-09T14:07:19.175Z,5.68
2023-10-09T14:09:56.639Z,5.30
2023-10-09T14:12:26.362Z,5.80
2023-10-09T14:14:55.164Z,5.68
2023-10-09T14:17:26.820Z,6.28
2023-10-09T14:20:02.148Z,5.65
2023-10-09T14:22:30.918Z,5.97
2023-10-09T14:24:59.732Z,5.97
2023-10-09T14:27:30.880Z,6.25
2023-10-09T14:30:00.858Z,6.05
2023-10-09T14:32:30.792Z,6.70
2023-10-09T14:35:02.332Z,5.78
2023-10-09T14:37:30.794Z,6.95
2023-10-09T14:39:59.824Z,6.38
2023-10-09T14:42:29.455Z,5.72
2023-10-09T14:44:57.629Z,6.32
2023-10-09T14:47:27.086Z,6.65
2023-10-09T14:49:57.674Z,6.25
2023-10-09T14:52:28.687Z,5.95
2023-10-09T14:54:59.434Z,5.72
2023-10-09T14:57:27.449Z,5.63
2023-10-09T14:59:55.636Z,5.47
2023-10-09T15:02:25.086Z,5.15
2023-10-09T15:04:54.299Z,6.07
2023-10-09T15:07:37.803Z,5.60
2023-10-09T15:10:11.515Z,5.85
2023-10-09T15:12:43.977Z,5.88
2023-10-09T15:15:15.140Z,6.55
2023-10-09T15:17:45.113Z,6.15
2023-10-09T15:20:14.898Z,5.78
2023-10-09T15:22:43.280Z,5.53
2023-10-09T15:25:16.189Z,6.00
2023-10-09T15:27:44.910Z,5.83
2023-10-09T15:30:15.966Z,5.53
2023-10-09T15:32:44.221Z,5.07
2023-10-09T15:35:14.608Z,5.35
2023-10-09T15:37:43.497Z,6.38
2023-10-09T15:40:16.607Z,6.43
2023-10-09T15:42:50.953Z,7.13
2023-10-09T15:45:21.253Z,5.90
2023-10-09T15:47:49.344Z,6.40
2023-10-09T15:50:17.879Z,5.75
2023-10-09T15:52:48.824Z,6.53
2023-10-09T15:55:22.019Z,6.00
2023-10-09T15:57:50.933Z,6.97
2023-10-09T16:00:19.777Z,6.82
2023-10-09T16:02:48.811Z,6.28
2023-10-09T16:05:18.279Z,6.32
2023-10-09T16:07:46.732Z,6.30
2023-10-09T16:10:14.549Z,6.25
2023-10-09T16:12:43.944Z,5.35
2023-10-09T16:15:15.592Z,6.32
2023-10-09T16:17:44.974Z,6.43
2023-10-09T16:20:23.067Z,6.05
2023-10-09T16:22:51.567Z,6.15
2023-10-09T16:25:22.217Z,6.13
2023-10-09T16:27:51.945Z,5.95
2023-10-09T16:30:21.547Z,6.65
2023-10-09T16:32:49.823Z,6.63
2023-10-09T16:35:17.909Z,6.45
2023-10-09T16:37:48.825Z,6.05
2023-10-09T16:40:16.803Z,6.78
2023-10-09T16:42:44.744Z,6.63
2023-10-09T16:45:17.205Z,7.13
2023-10-09T16:47:48.335Z,6.97
2023-10-09T16:50:17.545Z,7.10
2023-10-09T16:52:45.949Z,7.07
2023-10-09T16:55:16.113Z,7.60
2023-10-09T16:57:45.090Z,7.60
2023-10-09T17:00:29.727Z,6.97
2023-10-09T17:02:58.328Z,6.85
2023-10-09T17:05:34.096Z,5.90
2023-10-09T17:08:02.326Z,5.55
2023-10-09T17:10:30.672Z,6.55
2023-10-09T17:13:00.011Z,5.97
2023-10-09T17:15:34.375Z,6.75
2023-10-09T17:18:02.625Z,6.85
2023-10-09T17:20:30.821Z,7.13
2023-10-09T17:23:01.211Z,7.13
2023-10-09T17:25:32.289Z,6.45
2023-10-09T17:28:01.209Z,6.47
2023-10-09T17:30:33.823Z,7.15
2023-10-09T17:33:01.830Z,6.93
2023-10-09T17:35:32.807Z,5.88
2023-10-09T17:38:00.830Z,6.55
2023-10-09T17:40:29.325Z,5.47
2023-10-09T17:42:57.980Z,6.03
2023-10-09T17:45:26.300Z,6.72
2023-10-09T17:47:57.331Z,6.07
2023-10-09T17:50:26.642Z,5.70
2023-10-09T17:52:55.530Z,6.68
2023-10-09T17:55:24.361Z,6.18
2023-10-09T17:57:52.270Z,6.10
2023-10-09T18:00:24.313Z,5.70
2023-10-09T18:02:53.714Z,5.88
2023-10-09T18:05:23.190Z,5.88
2023-10-09T18:07:51.510Z,6.00
2023-10-09T18:10:19.885Z,6.10
2023-10-09T18:12:48.434Z,6.10
2023-10-09T18:15:21.910Z,5.43
2023-10-09T18:17:50.900Z,5.45
2023-10-09T18:20:21.826Z,5.35
2023-10-09T18:22:52.500Z,6.32
2023-10-09T18:25:20.531Z,5.78
2023-10-09T18:27:48.517Z,5.68
2023-10-09T18:30:16.417Z,5.53
2023-10-09T18:32:46.878Z,5.75
2023-10-09T18:35:17.171Z,5.20
2023-10-09T18:37:45.474Z,5.57
2023-10-09T18:40:17.719Z,5.25
2023-10-09T18:42:46.073Z,5.55
2023-10-09T18:45:16.641Z,6.22
2023-10-09T18:47:44.920Z,5.93
2023-10-09T18:50:13.578Z,5.88
2023-10-09T18:52:44.680Z,5.30
2023-10-09T18:55:14.415Z,5.78
2023-10-09T18:57:44.237Z,5.40
2023-10-09T19:00:20.974Z,5.85
2023-10-09T19:02:52.201Z,5.60
2023-10-09T19:05:20.712Z,5.75
2023-10-09T19:07:49.278Z,5.20
2023-10-09T19:10:21.987Z,6.07
2023-10-09T19:12:50.253Z,5.60
2023-10-09T19:15:19.564Z,6.07
2023-10-09T19:17:47.826Z,5.20
2023-10-09T19:20:18.011Z,6.38
2023-10-09T19:22:46.135Z,6.15
2023-10-09T19:25:17.657Z,5.68
2023-10-09T19:27:49.804Z,6.15
2023-10-09T19:30:18.766Z,5.80
2023-10-09T19:32:48.628Z,5.65
2023-10-09T19:35:17.568Z,5.78
2023-10-09T19:37:48.931Z,6.32
2023-10-09T19:40:18.927Z,5.65
2023-10-09T19:42:49.217Z,6.30
2023-10-09T19:45:20.771Z,6.03
2023-10-09T19:47:51.334Z,5.63
2023-10-09T19:50:19.545Z,6.88
2023-10-09T19:52:49.461Z,6.00
2023-10-09T19:55:22.583Z,6.20
2023-10-09T19:57:55.859Z,6.32
2023-10-09T20:00:24.164Z,6.53
2023-10-09T20:02:55.262Z,6.85
2023-10-09T20:05:24.232Z,5.82
2023-10-09T20:07:54.208Z,5.22
2023-10-09T20:10:23.859Z,6.20
2023-10-09T20:12:53.243Z,5.45
2023-10-09T20:15:22.497Z,5.53
2023-10-09T20:17:50.833Z,5.43
2023-10-09T20:20:23.963Z,5.20
2023-10-09T20:22:53.552Z,4.82
2023-10-09T20:25:23.854Z,4.85
2023-10-09T20:27:54.005Z,4.90
2023-10-09T20:30:25.307Z,5.07
2023-10-09T20:32:54.203Z,5.30
2023-10-09T20:35:27.704Z,5.90
2023-10-09T20:37:56.928Z,5.90
2023-10-09T20:40:25.200Z,5.90
2023-10-09T20:42:55.433Z,6.43
2023-10-09T20:45:23.581Z,5.38
2023-10-09T20:47:56.131Z,5.18
2023-10-09T20:50:26.906Z,4.75
2023-10-09T20:52:55.691Z,5.15
2023-10-09T20:55:24.744Z,4.85
2023-10-09T20:57:58.378Z,5.40
2023-10-09T21:00:33.102Z,5.10
2023-10-09T21:03:01.647Z,5.47
2023-10-09T21:05:29.703Z,4.82
2023-10-09T21:07:57.846Z,5.25
2023-10-09T21:10:26.416Z,5.07
2023-10-09T21:12:54.937Z,4.05
2023-10-09T21:15:28.016Z,5.03
2023-10-09T21:17:56.396Z,5.55
2023-10-09T21:20:30.172Z,5.25
2023-10-09T21:22:58.876Z,5.45
2023-10-09T21:25:29.318Z,5.15
2023-10-09T21:27:57.546Z,5.30
2023-10-09T21:30:27.974Z,5.30
2023-10-09T21:32:56.147Z,5.75
2023-10-09T21:35:28.928Z,5.70
2023-10-09T21:37:59.854Z,5.35
2023-10-09T21:40:30.844Z,5.75
2023-10-09T21:43:00.369Z,5.50
2023-10-09T21:45:29.834Z,5.82
2023-10-09T21:47:58.203Z,6.05
2023-10-09T21:50:28.880Z,6.50
2023-10-09T21:52:58.047Z,6.50
2023-10-09T21:55:28.586Z,6.40
2023-10-09T21:57:56.656Z,6.40
2023-10-09T22:00:32.661Z,6.30
2023-10-09T22:03:03.323Z,6.25
2023-10-09T22:05:32.254Z,6.43
2023-10-09T22:08:00.895Z,5.97
2023-10-09T22:10:29.638Z,5.97
2023-10-09T22:12:57.926Z,6.25
2023-10-09T22:15:27.729Z,6.47
2023-10-09T22:17:56.073Z,6.82
2023-10-09T22:20:25.831Z,6.45
2023-10-09T22:22:57.656Z,6.78
2023-10-09T22:25:27.412Z,6.20
2023-10-09T22:28:00.013Z,5.80
2023-10-09T22:30:34.632Z,7.07
2023-10-09T22:33:05.768Z,6.80
2023-10-09T22:35:46.201Z,7.15
2023-10-09T22:38:16.888Z,6.30
2023-10-09T22:40:50.055Z,6.75
2023-10-09T22:43:21.648Z,6.70
2023-10-09T22:45:53.810Z,7.28
2023-10-09T22:48:28.383Z,7.35
2023-10-09T22:51:10.901Z,7.80
2023-10-09T22:53:47.810Z,7.55
2023-10-09T22:56:17.626Z,7.88
2023-10-09T22:58:52.838Z,7.70
2023-10-09T23:01:24.490Z,7.85
2023-10-09T23:04:10.383Z,8.07
2023-10-09T23:06:45.644Z,8.25
2023-10-09T23:09:17.036Z,8.48
2023-10-09T23:11:55.013Z,8.55
2023-10-09T23:14:27.931Z,8.90
2023-10-09T23:17:00.658Z,8.88
2023-10-09T23:19:41.678Z,9.23
2023-10-09T23:22:15.354Z,8.95
2023-10-09T23:24:54.834Z,8.88
2023-10-09T23:27:46.893Z,9.57
2023-10-09T23:30:19.319Z,8.82
2023-10-09T23:32:50.849Z,9.80
2023-10-09T23:35:22.101Z,9.63
2023-10-09T23:38:10.503Z,10.30
2023-10-09T23:40:41.879Z,9.63
2023-10-09T23:43:14.551Z,9.55
2023-10-09T23:45:43.075Z,10.13
2023-10-09T23:48:15.783Z,10.65
2023-10-09T23:50:49.099Z,10.98
2023-10-09T23:53:23.549Z,11.03
2023-10-09T23:58:21.045Z,11.50
